sensor_id;sensor_type;location;lat;lon;timestamp;P1;durP1;ratioP1;P2;durP2;ratioP2
41799;SDS011;27468;47.460;19.034;2023-02-01T00:02:02;5.90;;;1.65;;
41799;SDS011;27468;47.460;19.034;2023-02-01T00:04:28;4.07;;;1.50;;
41799;SDS011;27468;47.460;19.034;2023-02-01T00:06:53;4.65;;;1.33;;
41799;SDS011;27468;47.460;19.034;2023-02-01T00:09:19;5.10;;;2.30;;
41799;SDS011;27468;47.460;19.034;2023-02-01T00:11:44;5.13;;;1.40;;
41799;SDS011;27468;47.460;19.034;2023-02-01T00:14:10;3.43;;;1.47;;
41799;SDS011;27468;47.460;19.034;2023-02-01T00:16:35;5.00;;;2.33;;
41799;SDS011;27468;47.460;19.034;2023-02-01T00:19:02;3.58;;;1.75;;
41799;SDS011;27468;47.460;19.034;2023-02-01T00:21:30;4.70;;;1.80;;
41799;SDS011;27468;47.460;19.034;2023-02-01T00:23:56;5.50;;;1.90;;
41799;SDS011;27468;47.460;19.034;2023-02-01T00:26:24;4.25;;;1.63;;
41799;SDS011;27468;47.460;19.034;2023-02-01T00:28:55;4.63;;;2.17;;
41799;SDS011;27468;47.460;19.034;2023-02-01T00:31:20;5.20;;;1.70;;
41799;SDS011;27468;47.460;19.034;2023-02-01T00:33:48;5.55;;;2.50;;
41799;SDS011;27468;47.460;19.034;2023-02-01T00:36:14;5.03;;;2.15;;
41799;SDS011;27468;47.460;19.034;2023-02-01T00:38:40;4.20;;;1.80;;
41799;SDS011;27468;47.460;19.034;2023-02-01T00:41:16;3.70;;;1.70;;
41799;SDS011;27468;47.460;19.034;2023-02-01T00:43:43;4.05;;;1.40;;
41799;SDS011;27468;47.460;19.034;2023-02-01T00:46:10;2.92;;;1.60;;
41799;SDS011;27468;47.460;19.034;2023-02-01T00:48:37;4.13;;;1.80;;
41799;SDS011;27468;47.460;19.034;2023-02-01T00:51:04;3.75;;;1.50;;
41799;SDS011;27468;47.460;19.034;2023-02-01T00:53:31;4.32;;;1.63;;
41799;SDS011;27468;47.460;19.034;2023-02-01T00:55:57;3.42;;;1.40;;
41799;SDS011;27468;47.460;19.034;2023-02-01T00:58:22;5.40;;;1.70;;
41799;SDS011;27468;47.460;19.034;2023-02-01T01:01:00;4.40;;;1.50;;
41799;SDS011;27468;47.460;19.034;2023-02-01T01:03:28;3.47;;;2.00;;
41799;SDS011;27468;47.460;19.034;2023-02-01T01:05:58;4.10;;;1.75;;
41799;SDS011;27468;47.460;19.034;2023-02-01T01:08:24;2.95;;;1.40;;
41799;SDS011;27468;47.460;19.034;2023-02-01T01:10:49;4.45;;;1.98;;
41799;SDS011;27468;47.460;19.034;2023-02-01T01:13:15;3.60;;;1.50;;
41799;SDS011;27468;47.460;19.034;2023-02-01T01:15:40;3.63;;;1.77;;
41799;SDS011;27468;47.460;19.034;2023-02-01T01:18:06;3.53;;;2.17;;
41799;SDS011;27468;47.460;19.034;2023-02-01T01:20:35;4.22;;;1.70;;
41799;SDS011;27468;47.460;19.034;2023-02-01T01:23:03;2.53;;;1.73;;
41799;SDS011;27468;47.460;19.034;2023-02-01T01:25:29;3.72;;;1.75;;
41799;SDS011;27468;47.460;19.034;2023-02-01T01:27:54;6.55;;;1.90;;
41799;SDS011;27468;47.460;19.034;2023-02-01T01:30:20;4.70;;;1.60;;
41799;SDS011;27468;47.460;19.034;2023-02-01T01:32:45;4.28;;;2.10;;
41799;SDS011;27468;47.460;19.034;2023-02-01T01:35:11;4.73;;;2.37;;
41799;SDS011;27468;47.460;19.034;2023-02-01T01:37:36;2.70;;;1.40;;
41799;SDS011;27468;47.460;19.034;2023-02-01T01:40:02;4.63;;;2.40;;
41799;SDS011;27468;47.460;19.034;2023-02-01T01:42:29;3.70;;;2.50;;
41799;SDS011;27468;47.460;19.034;2023-02-01T01:47:32;2.75;;;2.20;;
41799;SDS011;27468;47.460;19.034;2023-02-01T01:50:10;4.50;;;2.17;;
41799;SDS011;27468;47.460;19.034;2023-02-01T01:52:42;3.40;;;1.48;;
41799;SDS011;27468;47.460;19.034;2023-02-01T01:55:11;3.97;;;2.13;;
41799;SDS011;27468;47.460;19.034;2023-02-01T01:57:41;5.13;;;1.83;;
41799;SDS011;27468;47.460;19.034;2023-02-01T02:00:11;4.20;;;1.80;;
41799;SDS011;27468;47.460;19.034;2023-02-01T02:02:39;4.73;;;2.20;;
41799;SDS011;27468;47.460;19.034;2023-02-01T02:05:07;4.43;;;2.13;;
41799;SDS011;27468;47.460;19.034;2023-02-01T02:07:37;4.07;;;1.77;;
41799;SDS011;27468;47.460;19.034;2023-02-01T02:10:07;2.70;;;1.80;;
41799;SDS011;27468;47.460;19.034;2023-02-01T02:12:38;2.67;;;1.60;;
41799;SDS011;27468;47.460;19.034;2023-02-01T02:15:06;5.40;;;1.80;;
41799;SDS011;27468;47.460;19.034;2023-02-01T02:42:13;3.73;;;1.93;;
41799;SDS011;27468;47.460;19.034;2023-02-01T02:45:10;2.50;;;1.87;;
41799;SDS011;27468;47.460;19.034;2023-02-01T02:53:52;3.60;;;1.90;;
41799;SDS011;27468;47.460;19.034;2023-02-01T02:56:44;3.23;;;1.90;;
41799;SDS011;27468;47.460;19.034;2023-02-01T02:59:28;5.40;;;2.33;;
41799;SDS011;27468;47.460;19.034;2023-02-01T03:02:13;3.07;;;1.90;;
41799;SDS011;27468;47.460;19.034;2023-02-01T03:04:59;3.40;;;1.70;;
41799;SDS011;27468;47.460;19.034;2023-02-01T03:10:47;4.67;;;2.40;;
41799;SDS011;27468;47.460;19.034;2023-02-01T03:16:30;5.90;;;3.33;;
41799;SDS011;27468;47.460;19.034;2023-02-01T03:19:02;3.72;;;1.70;;
41799;SDS011;27468;47.460;19.034;2023-02-01T03:24:04;3.63;;;2.00;;
41799;SDS011;27468;47.460;19.034;2023-02-01T03:26:36;3.78;;;2.08;;
41799;SDS011;27468;47.460;19.034;2023-02-01T03:29:11;2.87;;;2.10;;
41799;SDS011;27468;47.460;19.034;2023-02-01T03:31:41;3.67;;;1.90;;
41799;SDS011;27468;47.460;19.034;2023-02-01T03:34:06;3.67;;;2.10;;
41799;SDS011;27468;47.460;19.034;2023-02-01T03:36:35;2.63;;;1.63;;
41799;SDS011;27468;47.460;19.034;2023-02-01T03:41:59;2.00;;;1.60;;
41799;SDS011;27468;47.460;19.034;2023-02-01T03:47:09;3.70;;;1.80;;
41799;SDS011;27468;47.460;19.034;2023-02-01T03:49:40;2.50;;;1.87;;
41799;SDS011;27468;47.460;19.034;2023-02-01T03:52:10;2.70;;;1.80;;
41799;SDS011;27468;47.460;19.034;2023-02-01T03:54:40;2.47;;;1.50;;
41799;SDS011;27468;47.460;19.034;2023-02-01T03:57:10;2.37;;;1.77;;
41799;SDS011;27468;47.460;19.034;2023-02-01T03:59:41;1.58;;;1.40;;
41799;SDS011;27468;47.460;19.034;2023-02-01T04:02:09;3.07;;;1.80;;
41799;SDS011;27468;47.460;19.034;2023-02-01T04:04:37;2.53;;;1.50;;
41799;SDS011;27468;47.460;19.034;2023-02-01T04:07:02;2.70;;;1.60;;
41799;SDS011;27468;47.460;19.034;2023-02-01T04:09:29;2.45;;;1.30;;
41799;SDS011;27468;47.460;19.034;2023-02-01T04:11:55;1.90;;;1.30;;
41799;SDS011;27468;47.460;19.034;2023-02-01T04:14:20;2.03;;;1.00;;
41799;SDS011;27468;47.460;19.034;2023-02-01T04:16:46;1.10;;;0.90;;
41799;SDS011;27468;47.460;19.034;2023-02-01T04:19:11;2.77;;;1.30;;
41799;SDS011;27468;47.460;19.034;2023-02-01T04:21:37;2.35;;;1.40;;
41799;SDS011;27468;47.460;19.034;2023-02-01T04:24:02;2.00;;;1.33;;
41799;SDS011;27468;47.460;19.034;2023-02-01T04:26:28;2.00;;;1.20;;
41799;SDS011;27468;47.460;19.034;2023-02-01T04:28:53;1.90;;;1.30;;
41799;SDS011;27468;47.460;19.034;2023-02-01T04:31:19;2.50;;;1.50;;
41799;SDS011;27468;47.460;19.034;2023-02-01T04:33:52;1.30;;;0.83;;
41799;SDS011;27468;47.460;19.034;2023-02-01T04:36:19;1.93;;;1.60;;
41799;SDS011;27468;47.460;19.034;2023-02-01T04:38:48;2.63;;;1.40;;
41799;SDS011;27468;47.460;19.034;2023-02-01T04:41:14;1.37;;;0.97;;
41799;SDS011;27468;47.460;19.034;2023-02-01T04:43:43;1.25;;;1.00;;
41799;SDS011;27468;47.460;19.034;2023-02-01T04:46:09;1.87;;;1.27;;
41799;SDS011;27468;47.460;19.034;2023-02-01T04:48:35;3.63;;;1.27;;
41799;SDS011;27468;47.460;19.034;2023-02-01T04:51:00;2.35;;;1.40;;
41799;SDS011;27468;47.460;19.034;2023-02-01T04:53:26;1.75;;;1.00;;
41799;SDS011;27468;47.460;19.034;2023-02-01T04:55:51;1.85;;;1.30;;
41799;SDS011;27468;47.460;19.034;2023-02-01T04:58:16;1.15;;;0.75;;
41799;SDS011;27468;47.460;19.034;2023-02-01T05:00:42;0.95;;;0.82;;
41799;SDS011;27468;47.460;19.034;2023-02-01T05:03:07;1.52;;;1.00;;
41799;SDS011;27468;47.460;19.034;2023-02-01T05:05:33;1.83;;;1.20;;
41799;SDS011;27468;47.460;19.034;2023-02-01T05:07:58;1.63;;;1.30;;
41799;SDS011;27468;47.460;19.034;2023-02-01T05:10:24;1.30;;;1.00;;
41799;SDS011;27468;47.460;19.034;2023-02-01T05:12:50;2.53;;;1.02;;
41799;SDS011;27468;47.460;19.034;2023-02-01T05:15:34;1.27;;;0.80;;
41799;SDS011;27468;47.460;19.034;2023-02-01T05:17:59;1.17;;;1.05;;
41799;SDS011;27468;47.460;19.034;2023-02-01T05:20:25;1.38;;;0.98;;
41799;SDS011;27468;47.460;19.034;2023-02-01T05:22:50;1.50;;;1.05;;
41799;SDS011;27468;47.460;19.034;2023-02-01T05:25:16;1.88;;;1.20;;
41799;SDS011;27468;47.460;19.034;2023-02-01T05:27:41;2.78;;;1.17;;
41799;SDS011;27468;47.460;19.034;2023-02-01T05:30:07;1.60;;;0.77;;
41799;SDS011;27468;47.460;19.034;2023-02-01T05:32:33;2.30;;;1.27;;
41799;SDS011;27468;47.460;19.034;2023-02-01T05:34:59;2.75;;;0.95;;
41799;SDS011;27468;47.460;19.034;2023-02-01T05:37:25;1.67;;;0.98;;
41799;SDS011;27468;47.460;19.034;2023-02-01T05:39:51;1.45;;;1.15;;
41799;SDS011;27468;47.460;19.034;2023-02-01T05:42:16;2.08;;;1.23;;
41799;SDS011;27468;47.460;19.034;2023-02-01T05:44:42;1.60;;;1.05;;
41799;SDS011;27468;47.460;19.034;2023-02-01T05:47:07;1.27;;;0.73;;
41799;SDS011;27468;47.460;19.034;2023-02-01T05:49:33;0.82;;;0.57;;
41799;SDS011;27468;47.460;19.034;2023-02-01T05:51:58;1.60;;;0.90;;
41799;SDS011;27468;47.460;19.034;2023-02-01T05:54:23;1.80;;;0.98;;
41799;SDS011;27468;47.460;19.034;2023-02-01T05:56:52;1.60;;;0.95;;
41799;SDS011;27468;47.460;19.034;2023-02-01T05:59:17;1.80;;;1.48;;
41799;SDS011;27468;47.460;19.034;2023-02-01T06:01:43;1.13;;;1.00;;
41799;SDS011;27468;47.460;19.034;2023-02-01T06:04:08;1.92;;;0.80;;
41799;SDS011;27468;47.460;19.034;2023-02-01T06:06:34;1.85;;;1.42;;
41799;SDS011;27468;47.460;19.034;2023-02-01T06:08:59;2.03;;;1.30;;
41799;SDS011;27468;47.460;19.034;2023-02-01T06:11:25;2.05;;;1.08;;
41799;SDS011;27468;47.460;19.034;2023-02-01T06:13:51;3.28;;;1.10;;
41799;SDS011;27468;47.460;19.034;2023-02-01T06:16:16;1.88;;;1.10;;
41799;SDS011;27468;47.460;19.034;2023-02-01T06:18:42;1.95;;;1.27;;
41799;SDS011;27468;47.460;19.034;2023-02-01T06:21:07;1.70;;;1.15;;
41799;SDS011;27468;47.460;19.034;2023-02-01T06:23:33;0.98;;;0.88;;
41799;SDS011;27468;47.460;19.034;2023-02-01T06:26:03;1.70;;;1.20;;
41799;SDS011;27468;47.460;19.034;2023-02-01T06:28:30;1.58;;;1.20;;
41799;SDS011;27468;47.460;19.034;2023-02-01T06:30:56;2.00;;;1.20;;
41799;SDS011;27468;47.460;19.034;2023-02-01T06:33:23;1.85;;;1.40;;
41799;SDS011;27468;47.460;19.034;2023-02-01T06:35:49;1.80;;;1.25;;
41799;SDS011;27468;47.460;19.034;2023-02-01T06:40:51;1.20;;;0.73;;
41799;SDS011;27468;47.460;19.034;2023-02-01T06:43:18;2.05;;;1.20;;
41799;SDS011;27468;47.460;19.034;2023-02-01T06:45:44;1.83;;;1.20;;
41799;SDS011;27468;47.460;19.034;2023-02-01T06:48:09;1.25;;;1.10;;
41799;SDS011;27468;47.460;19.034;2023-02-01T06:50:34;1.50;;;1.00;;
41799;SDS011;27468;47.460;19.034;2023-02-01T06:53:00;2.90;;;1.67;;
41799;SDS011;27468;47.460;19.034;2023-02-01T06:55:26;1.48;;;1.17;;
41799;SDS011;27468;47.460;19.034;2023-02-01T06:57:54;1.58;;;0.77;;
41799;SDS011;27468;47.460;19.034;2023-02-01T07:00:21;1.90;;;1.08;;
41799;SDS011;27468;47.460;19.034;2023-02-01T07:02:47;1.58;;;1.40;;
41799;SDS011;27468;47.460;19.034;2023-02-01T07:05:13;2.55;;;1.15;;
41799;SDS011;27468;47.460;19.034;2023-02-01T07:07:38;1.45;;;1.00;;
41799;SDS011;27468;47.460;19.034;2023-02-01T07:10:04;2.20;;;1.10;;
41799;SDS011;27468;47.460;19.034;2023-02-01T07:12:30;2.15;;;0.75;;
41799;SDS011;27468;47.460;19.034;2023-02-01T07:14:55;2.33;;;1.20;;
41799;SDS011;27468;47.460;19.034;2023-02-01T07:17:21;1.10;;;0.75;;
41799;SDS011;27468;47.460;19.034;2023-02-01T07:19:47;2.50;;;1.20;;
41799;SDS011;27468;47.460;19.034;2023-02-01T07:22:12;2.50;;;1.10;;
41799;SDS011;27468;47.460;19.034;2023-02-01T07:24:38;1.67;;;1.00;;
41799;SDS011;27468;47.460;19.034;2023-02-01T07:27:03;4.28;;;2.13;;
41799;SDS011;27468;47.460;19.034;2023-02-01T07:29:29;3.60;;;1.30;;
41799;SDS011;27468;47.460;19.034;2023-02-01T07:31:54;1.90;;;1.10;;
41799;SDS011;27468;47.460;19.034;2023-02-01T07:34:19;2.78;;;1.40;;
41799;SDS011;27468;47.460;19.034;2023-02-01T07:36:45;1.80;;;1.40;;
41799;SDS011;27468;47.460;19.034;2023-02-01T07:39:10;1.15;;;0.82;;
41799;SDS011;27468;47.460;19.034;2023-02-01T07:41:35;1.85;;;1.10;;
41799;SDS011;27468;47.460;19.034;2023-02-01T07:44:01;1.83;;;1.35;;
41799;SDS011;27468;47.460;19.034;2023-02-01T07:46:26;5.15;;;1.80;;
41799;SDS011;27468;47.460;19.034;2023-02-01T07:48:52;1.70;;;1.20;;
41799;SDS011;27468;47.460;19.034;2023-02-01T07:51:17;1.70;;;1.48;;
41799;SDS011;27468;47.460;19.034;2023-02-01T07:53:43;2.42;;;1.35;;
41799;SDS011;27468;47.460;19.034;2023-02-01T07:56:13;1.75;;;1.08;;
41799;SDS011;27468;47.460;19.034;2023-02-01T07:58:43;2.47;;;1.52;;
41799;SDS011;27468;47.460;19.034;2023-02-01T08:01:13;1.60;;;1.30;;
41799;SDS011;27468;47.460;19.034;2023-02-01T08:03:56;1.48;;;1.13;;
41799;SDS011;27468;47.460;19.034;2023-02-01T08:06:26;3.42;;;1.40;;
41799;SDS011;27468;47.460;19.034;2023-02-01T08:08:53;1.55;;;1.27;;
41799;SDS011;27468;47.460;19.034;2023-02-01T08:11:19;2.38;;;1.30;;
41799;SDS011;27468;47.460;19.034;2023-02-01T08:13:45;2.72;;;1.85;;
41799;SDS011;27468;47.460;19.034;2023-02-01T08:16:12;2.58;;;1.50;;
41799;SDS011;27468;47.460;19.034;2023-02-01T08:18:38;1.65;;;1.35;;
41799;SDS011;27468;47.460;19.034;2023-02-01T08:21:06;3.25;;;1.60;;
41799;SDS011;27468;47.460;19.034;2023-02-01T08:23:39;2.70;;;1.45;;
41799;SDS011;27468;47.460;19.034;2023-02-01T08:26:09;3.33;;;1.50;;
41799;SDS011;27468;47.460;19.034;2023-02-01T08:28:47;3.50;;;1.30;;
41799;SDS011;27468;47.460;19.034;2023-02-01T08:31:15;2.70;;;1.50;;
41799;SDS011;27468;47.460;19.034;2023-02-01T08:33:43;3.33;;;1.63;;
41799;SDS011;27468;47.460;19.034;2023-02-01T08:36:12;3.85;;;1.60;;
41799;SDS011;27468;47.460;19.034;2023-02-01T08:38:38;3.42;;;1.98;;
41799;SDS011;27468;47.460;19.034;2023-02-01T08:41:14;2.35;;;1.70;;
41799;SDS011;27468;47.460;19.034;2023-02-01T08:43:42;2.83;;;2.10;;
41799;SDS011;27468;47.460;19.034;2023-02-01T08:46:08;2.10;;;1.25;;
41799;SDS011;27468;47.460;19.034;2023-02-01T08:48:35;2.00;;;1.50;;
41799;SDS011;27468;47.460;19.034;2023-02-01T08:51:04;2.67;;;1.70;;
41799;SDS011;27468;47.460;19.034;2023-02-01T08:53:31;2.40;;;1.55;;
41799;SDS011;27468;47.460;19.034;2023-02-01T08:55:57;3.53;;;1.67;;
41799;SDS011;27468;47.460;19.034;2023-02-01T08:58:22;4.70;;;1.92;;
41799;SDS011;27468;47.460;19.034;2023-02-01T09:00:48;3.10;;;2.13;;
41799;SDS011;27468;47.460;19.034;2023-02-01T09:03:14;3.75;;;2.05;;
41799;SDS011;27468;47.460;19.034;2023-02-01T09:05:40;3.50;;;1.90;;
41799;SDS011;27468;47.460;19.034;2023-02-01T09:08:06;3.45;;;2.10;;
41799;SDS011;27468;47.460;19.034;2023-02-01T09:10:31;4.05;;;2.10;;
41799;SDS011;27468;47.460;19.034;2023-02-01T09:12:57;3.47;;;1.95;;
41799;SDS011;27468;47.460;19.034;2023-02-01T09:15:22;2.85;;;2.00;;
41799;SDS011;27468;47.460;19.034;2023-02-01T09:17:48;2.42;;;1.85;;
41799;SDS011;27468;47.460;19.034;2023-02-01T09:20:14;2.92;;;1.95;;
41799;SDS011;27468;47.460;19.034;2023-02-01T09:22:39;3.42;;;1.83;;
41799;SDS011;27468;47.460;19.034;2023-02-01T09:25:05;2.90;;;1.73;;
41799;SDS011;27468;47.460;19.034;2023-02-01T09:27:32;3.08;;;2.03;;
41799;SDS011;27468;47.460;19.034;2023-02-01T09:29:58;4.22;;;2.17;;
41799;SDS011;27468;47.460;19.034;2023-02-01T09:32:23;3.70;;;2.17;;
41799;SDS011;27468;47.460;19.034;2023-02-01T09:34:50;3.60;;;2.20;;
41799;SDS011;27468;47.460;19.034;2023-02-01T09:37:16;4.28;;;2.13;;
41799;SDS011;27468;47.460;19.034;2023-02-01T09:39:41;2.33;;;1.42;;
41799;SDS011;27468;47.460;19.034;2023-02-01T09:47:49;2.63;;;1.77;;
41799;SDS011;27468;47.460;19.034;2023-02-01T09:50:20;5.00;;;2.92;;
41799;SDS011;27468;47.460;19.034;2023-02-01T09:53:00;3.63;;;2.33;;
41799;SDS011;27468;47.460;19.034;2023-02-01T09:55:42;4.30;;;2.47;;
41799;SDS011;27468;47.460;19.034;2023-02-01T10:00:50;3.42;;;1.80;;
41799;SDS011;27468;47.460;19.034;2023-02-01T10:03:18;3.55;;;2.20;;
41799;SDS011;27468;47.460;19.034;2023-02-01T10:16:37;4.47;;;2.67;;
41799;SDS011;27468;47.460;19.034;2023-02-01T10:21:48;5.65;;;2.17;;
41799;SDS011;27468;47.460;19.034;2023-02-01T10:29:38;3.50;;;2.40;;
41799;SDS011;27468;47.460;19.034;2023-02-01T10:32:20;3.35;;;2.30;;
41799;SDS011;27468;47.460;19.034;2023-02-01T10:34:55;9.93;;;5.20;;
41799;SDS011;27468;47.460;19.034;2023-02-01T10:37:25;5.85;;;3.20;;
41799;SDS011;27468;47.460;19.034;2023-02-01T10:39:54;6.00;;;2.60;;
41799;SDS011;27468;47.460;19.034;2023-02-01T10:42:21;3.67;;;2.65;;
41799;SDS011;27468;47.460;19.034;2023-02-01T10:44:50;3.55;;;2.40;;
41799;SDS011;27468;47.460;19.034;2023-02-01T10:47:15;3.95;;;2.92;;
41799;SDS011;27468;47.460;19.034;2023-02-01T10:52:14;2.88;;;2.30;;
41799;SDS011;27468;47.460;19.034;2023-02-01T10:54:45;8.50;;;5.38;;
41799;SDS011;27468;47.460;19.034;2023-02-01T10:57:20;3.25;;;2.53;;
41799;SDS011;27468;47.460;19.034;2023-02-01T10:59:49;3.75;;;3.05;;
41799;SDS011;27468;47.460;19.034;2023-02-01T11:05:00;6.38;;;4.13;;
41799;SDS011;27468;47.460;19.034;2023-02-01T11:07:31;6.05;;;3.40;;
41799;SDS011;27468;47.460;19.034;2023-02-01T11:09:57;4.65;;;3.20;;
41799;SDS011;27468;47.460;19.034;2023-02-01T11:12:24;5.15;;;3.40;;
41799;SDS011;27468;47.460;19.034;2023-02-01T11:14:56;9.90;;;8.90;;
41799;SDS011;27468;47.460;19.034;2023-02-01T11:17:44;4.35;;;2.75;;
41799;SDS011;27468;47.460;19.034;2023-02-01T11:23:10;6.25;;;2.95;;
41799;SDS011;27468;47.460;19.034;2023-02-01T11:25:50;4.72;;;2.67;;
41799;SDS011;27468;47.460;19.034;2023-02-01T11:28:19;4.00;;;3.30;;
41799;SDS011;27468;47.460;19.034;2023-02-01T11:30:48;6.00;;;3.40;;
41799;SDS011;27468;47.460;19.034;2023-02-01T11:33:19;5.45;;;3.58;;
41799;SDS011;27468;47.460;19.034;2023-02-01T11:35:45;6.40;;;3.63;;
41799;SDS011;27468;47.460;19.034;2023-02-01T11:38:17;6.30;;;3.97;;
41799;SDS011;27468;47.460;19.034;2023-02-01T11:40:46;5.60;;;3.45;;
41799;SDS011;27468;47.460;19.034;2023-02-01T11:45:55;6.88;;;4.72;;
41799;SDS011;27468;47.460;19.034;2023-02-01T11:48:20;9.48;;;4.75;;
41799;SDS011;27468;47.460;19.034;2023-02-01T12:03:03;6.10;;;3.60;;
41799;SDS011;27468;47.460;19.034;2023-02-01T12:05:52;14.05;;;8.90;;
41799;SDS011;27468;47.460;19.034;2023-02-01T12:10:56;5.05;;;3.72;;
41799;SDS011;27468;47.460;19.034;2023-02-01T12:13:38;5.88;;;3.58;;
41799;SDS011;27468;47.460;19.034;2023-02-01T12:16:14;5.72;;;3.55;;
41799;SDS011;27468;47.460;19.034;2023-02-01T12:33:19;6.68;;;4.10;;
41799;SDS011;27468;47.460;19.034;2023-02-01T12:46:12;6.00;;;2.95;;
41799;SDS011;27468;47.460;19.034;2023-02-01T12:48:47;6.75;;;3.40;;
41799;SDS011;27468;47.460;19.034;2023-02-01T12:51:39;7.07;;;3.40;;
41799;SDS011;27468;47.460;19.034;2023-02-01T12:54:13;5.47;;;2.85;;
41799;SDS011;27468;47.460;19.034;2023-02-01T12:56:43;8.73;;;5.95;;
41799;SDS011;27468;47.460;19.034;2023-02-01T13:02:12;4.78;;;2.83;;
41799;SDS011;27468;47.460;19.034;2023-02-01T13:08:09;5.07;;;3.00;;
41799;SDS011;27468;47.460;19.034;2023-02-01T13:10:38;4.35;;;2.42;;
41799;SDS011;27468;47.460;19.034;2023-02-01T13:16:32;3.90;;;2.47;;
41799;SDS011;27468;47.460;19.034;2023-02-01T13:19:40;3.15;;;2.15;;
41799;SDS011;27468;47.460;19.034;2023-02-01T13:22:23;3.80;;;2.70;;
41799;SDS011;27468;47.460;19.034;2023-02-01T13:24:56;4.38;;;2.70;;
41799;SDS011;27468;47.460;19.034;2023-02-01T13:27:26;5.18;;;2.42;;
41799;SDS011;27468;47.460;19.034;2023-02-01T13:37:50;4.63;;;2.80;;
41799;SDS011;27468;47.460;19.034;2023-02-01T13:43:13;7.07;;;3.20;;
41799;SDS011;27468;47.460;19.034;2023-02-01T13:45:46;4.25;;;2.85;;
41799;SDS011;27468;47.460;19.034;2023-02-01T13:48:28;5.22;;;2.97;;
41799;SDS011;27468;47.460;19.034;2023-02-01T13:51:03;6.15;;;3.10;;
41799;SDS011;27468;47.460;19.034;2023-02-01T13:53:33;4.97;;;2.70;;
41799;SDS011;27468;47.460;19.034;2023-02-01T13:56:10;9.75;;;6.07;;
41799;SDS011;27468;47.460;19.034;2023-02-01T13:58:37;5.55;;;4.28;;
41799;SDS011;27468;47.460;19.034;2023-02-01T14:16:39;7.50;;;4.13;;
41799;SDS011;27468;47.460;19.034;2023-02-01T14:19:07;4.75;;;2.40;;
41799;SDS011;27468;47.460;19.034;2023-02-01T14:21:48;3.97;;;2.60;;
41799;SDS011;27468;47.460;19.034;2023-02-01T14:24:26;4.00;;;2.80;;
41799;SDS011;27468;47.460;19.034;2023-02-01T14:29:40;3.78;;;2.38;;
41799;SDS011;27468;47.460;19.034;2023-02-01T14:42:26;9.48;;;6.10;;
41799;SDS011;27468;47.460;19.034;2023-02-01T14:53:30;8.77;;;4.35;;
41799;SDS011;27468;47.460;19.034;2023-02-01T15:01:02;2.38;;;1.90;;
41799;SDS011;27468;47.460;19.034;2023-02-01T15:03:54;3.85;;;2.00;;
41799;SDS011;27468;47.460;19.034;2023-02-01T15:14:25;1.80;;;0.82;;
41799;SDS011;27468;47.460;19.034;2023-02-01T15:16:51;1.60;;;1.13;;
41799;SDS011;27468;47.460;19.034;2023-02-01T15:19:21;3.60;;;2.35;;
41799;SDS011;27468;47.460;19.034;2023-02-01T15:21:49;2.00;;;0.90;;
41799;SDS011;27468;47.460;19.034;2023-02-01T15:24:20;2.03;;;1.30;;
41799;SDS011;27468;47.460;19.034;2023-02-01T15:26:46;1.58;;;0.90;;
41799;SDS011;27468;47.460;19.034;2023-02-01T15:29:13;1.98;;;0.95;;
41799;SDS011;27468;47.460;19.034;2023-02-01T15:31:47;1.13;;;1.02;;
41799;SDS011;27468;47.460;19.034;2023-02-01T15:34:16;2.58;;;1.00;;
41799;SDS011;27468;47.460;19.034;2023-02-01T15:36:42;2.40;;;1.02;;
41799;SDS011;27468;47.460;19.034;2023-02-01T15:41:55;0.88;;;0.60;;
41799;SDS011;27468;47.460;19.034;2023-02-01T15:44:30;4.88;;;1.55;;
41799;SDS011;27468;47.460;19.034;2023-02-01T15:46:59;1.33;;;0.63;;
41799;SDS011;27468;47.460;19.034;2023-02-01T15:49:31;3.75;;;1.77;;
41799;SDS011;27468;47.460;19.034;2023-02-01T15:52:01;3.85;;;2.17;;
41799;SDS011;27468;47.460;19.034;2023-02-01T15:54:29;11.27;;;5.07;;
41799;SDS011;27468;47.460;19.034;2023-02-01T15:56:58;20.25;;;9.02;;
41799;SDS011;27468;47.460;19.034;2023-02-01T15:59:32;17.23;;;7.07;;
41799;SDS011;27468;47.460;19.034;2023-02-01T16:02:24;3.42;;;1.92;;
41799;SDS011;27468;47.460;19.034;2023-02-01T16:04:50;7.07;;;3.65;;
41799;SDS011;27468;47.460;19.034;2023-02-01T16:07:27;2.22;;;0.90;;
41799;SDS011;27468;47.460;19.034;2023-02-01T16:09:55;1.60;;;0.90;;
41799;SDS011;27468;47.460;19.034;2023-02-01T16:12:33;2.72;;;0.90;;
41799;SDS011;27468;47.460;19.034;2023-02-01T16:15:09;3.25;;;1.25;;
41799;SDS011;27468;47.460;19.034;2023-02-01T16:17:35;2.58;;;1.50;;
41799;SDS011;27468;47.460;19.034;2023-02-01T16:20:00;0.75;;;0.50;;
41799;SDS011;27468;47.460;19.034;2023-02-01T16:22:26;4.50;;;1.25;;
41799;SDS011;27468;47.460;19.034;2023-02-01T16:24:51;2.38;;;0.95;;
41799;SDS011;27468;47.460;19.034;2023-02-01T16:27:16;2.53;;;0.90;;
41799;SDS011;27468;47.460;19.034;2023-02-01T16:29:42;2.95;;;1.30;;
41799;SDS011;27468;47.460;19.034;2023-02-01T16:32:17;2.75;;;0.90;;
41799;SDS011;27468;47.460;19.034;2023-02-01T16:34:45;2.03;;;0.85;;
41799;SDS011;27468;47.460;19.034;2023-02-01T16:37:12;1.50;;;0.57;;
41799;SDS011;27468;47.460;19.034;2023-02-01T16:39:40;2.78;;;1.27;;
41799;SDS011;27468;47.460;19.034;2023-02-01T16:42:12;1.60;;;0.88;;
41799;SDS011;27468;47.460;19.034;2023-02-01T16:44:39;2.42;;;0.90;;
41799;SDS011;27468;47.460;19.034;2023-02-01T16:47:16;2.10;;;0.90;;
41799;SDS011;27468;47.460;19.034;2023-02-01T16:49:43;3.20;;;1.00;;
41799;SDS011;27468;47.460;19.034;2023-02-01T16:52:17;3.28;;;1.20;;
41799;SDS011;27468;47.460;19.034;2023-02-01T16:54:45;2.90;;;1.27;;
41799;SDS011;27468;47.460;19.034;2023-02-01T16:57:12;2.92;;;1.20;;
41799;SDS011;27468;47.460;19.034;2023-02-01T16:59:39;3.33;;;1.50;;
41799;SDS011;27468;47.460;19.034;2023-02-01T17:02:08;3.13;;;1.80;;
41799;SDS011;27468;47.460;19.034;2023-02-01T17:04:37;3.47;;;2.00;;
41799;SDS011;27468;47.460;19.034;2023-02-01T17:07:02;2.72;;;1.30;;
41799;SDS011;27468;47.460;19.034;2023-02-01T17:09:34;5.97;;;2.10;;
41799;SDS011;27468;47.460;19.034;2023-02-01T17:12:00;4.35;;;2.35;;
41799;SDS011;27468;47.460;19.034;2023-02-01T17:14:26;3.38;;;1.60;;
41799;SDS011;27468;47.460;19.034;2023-02-01T17:16:52;4.82;;;1.48;;
41799;SDS011;27468;47.460;19.034;2023-02-01T17:19:21;4.30;;;1.80;;
41799;SDS011;27468;47.460;19.034;2023-02-01T17:21:48;4.07;;;1.70;;
41799;SDS011;27468;47.460;19.034;2023-02-01T17:24:18;4.35;;;2.22;;
41799;SDS011;27468;47.460;19.034;2023-02-01T17:26:44;5.80;;;2.58;;
41799;SDS011;27468;47.460;19.034;2023-02-01T17:29:11;4.35;;;2.10;;
41799;SDS011;27468;47.460;19.034;2023-02-01T17:31:40;3.13;;;1.80;;
41799;SDS011;27468;47.460;19.034;2023-02-01T17:34:09;2.47;;;1.80;;
41799;SDS011;27468;47.460;19.034;2023-02-01T17:36:35;4.43;;;2.17;;
41799;SDS011;27468;47.460;19.034;2023-02-01T17:39:01;2.38;;;1.90;;
41799;SDS011;27468;47.460;19.034;2023-02-01T17:41:27;4.47;;;2.03;;
41799;SDS011;27468;47.460;19.034;2023-02-01T17:43:52;3.20;;;2.10;;
41799;SDS011;27468;47.460;19.034;2023-02-01T17:46:17;4.10;;;2.10;;
41799;SDS011;27468;47.460;19.034;2023-02-01T17:48:45;2.92;;;1.70;;
41799;SDS011;27468;47.460;19.034;2023-02-01T17:51:15;7.38;;;3.95;;
41799;SDS011;27468;47.460;19.034;2023-02-01T17:53:45;3.55;;;1.58;;
41799;SDS011;27468;47.460;19.034;2023-02-01T17:56:12;1.83;;;1.30;;
41799;SDS011;27468;47.460;19.034;2023-02-01T17:58:39;3.20;;;1.80;;
41799;SDS011;27468;47.460;19.034;2023-02-01T18:01:04;6.65;;;4.28;;
41799;SDS011;27468;47.460;19.034;2023-02-01T18:03:30;6.47;;;4.20;;
41799;SDS011;27468;47.460;19.034;2023-02-01T18:05:57;4.20;;;1.55;;